Time;durP1;ratioP1;P1;durP2;ratioP2;P2;SDS_P1;SDS_P2;PMS_P1;PMS_P2;Temp;Humidity;BMP_temperature;BMP_pressure;BME280_temperature;BME280_humidity;BME280_pressure;Samples;Min_cycle;Max_cycle;Signal;HPM_P1;HPM_P2
2022/03/21 00:01:04;;;;;;;14.85;10.48;;;;;;;3.73;56.04;103887.09;4766134;30;20040;-77
2022/03/21 00:03:30;;;;;;;17.85;11.38;;;;;;;3.65;56.16;103875.13;4777613;30;20032;-77
2022/03/21 00:05:57;;;;;;;15.57;11.10;;;;;;;3.59;55.62;103865.66;4785959;30;20126;-79
2022/03/21 00:08:24;;;;;;;16.00;10.77;;;;;;;3.53;55.85;103856.16;4747709;30;20035;-78
2022/03/21 00:10:51;;;;;;;16.30;10.43;;;;;;;3.62;55.97;103884.13;4761823;30;20027;-78
2022/03/21 00:13:18;;;;;;;17.60;10.80;;;;;;;3.52;55.40;103838.47;4780991;30;20036;-78
2022/03/21 00:15:45;;;;;;;15.30;10.23;;;;;;;3.49;55.94;103845.75;4773681;30;20028;-78
2022/03/21 00:18:14;;;;;;;18.33;10.13;;;;;;;3.62;55.35;103861.97;4764366;30;20032;-78
2022/03/21 00:20:48;;;;;;;15.45;10.18;;;;;;;3.64;55.85;103860.97;4799530;30;20027;-79
2022/03/21 00:23:14;;;;;;;17.90;10.30;;;;;;;3.62;54.83;103852.19;4791400;29;20066;-78
2022/03/21 00:25:40;;;;;;;18.27;10.68;;;;;;;3.66;55.60;103864.38;4782001;30;20055;-77
2022/03/21 00:28:07;;;;;;;14.85;9.57;;;;;;;3.52;55.18;103841.13;4788450;30;20059;-78
2022/03/21 00:30:34;;;;;;;20.63;10.10;;;;;;;3.47;55.46;103836.97;4760693;30;20050;-78
2022/03/21 00:33:00;;;;;;;17.08;11.07;;;;;;;3.50;56.06;103858.13;4792250;30;20114;-78
2022/03/21 00:35:27;;;;;;;16.17;10.23;;;;;;;3.47;56.46;103856.47;4787246;30;20062;-78
2022/03/21 00:37:52;;;;;;;18.42;10.52;;;;;;;3.41;55.39;103843.50;4766211;30;20123;-78
2022/03/21 00:40:18;;;;;;;15.82;10.27;;;;;;;3.40;55.82;103831.09;4761850;30;20043;-78
2022/03/21 00:42:45;;;;;;;13.88;9.40;;;;;;;3.51;55.13;103851.88;4775425;30;20050;-78
2022/03/21 00:45:16;;;;;;;19.10;10.35;;;;;;;3.52;55.50;103849.13;4758148;30;20032;-78
2022/03/21 00:47:43;;;;;;;19.30;9.73;;;;;;;3.57;54.35;103845.34;4759950;30;20035;-78
2022/03/21 00:50:10;;;;;;;16.23;10.00;;;;;;;3.54;54.17;103841.03;4773288;30;20344;-78
2022/03/21 00:52:44;;;;;;;16.38;9.55;;;;;;;3.62;54.60;103854.00;4773632;30;20028;-78
2022/03/21 00:55:11;;;;;;;15.65;10.10;;;;;;;3.57;54.52;103838.22;4757565;30;20455;-77
2022/03/21 00:57:40;;;;;;;15.77;10.20;;;;;;;3.56;54.44;103836.50;4741390;30;20086;-77
2022/03/21 01:00:09;;;;;;;14.60;9.30;;;;;;;3.52;54.81;103835.81;4772707;30;20028;-78
2022/03/21 01:02:36;;;;;;;13.82;9.55;;;;;;;3.30;54.72;103820.06;4772925;30;20031;-78
2022/03/21 01:05:02;;;;;;;16.10;9.32;;;;;;;3.41;55.20;103829.31;4783100;30;20027;-77
2022/03/21 01:07:28;;;;;;;13.98;9.63;;;;;;;3.31;55.51;103815.59;4773441;30;20047;-78
2022/03/21 01:09:54;;;;;;;13.98;9.30;;;;;;;3.38;55.10;103822.34;4771374;30;20145;-77
2022/03/21 01:12:19;;;;;;;16.85;9.38;;;;;;;3.27;55.09;103816.69;4773456;30;20130;-78
2022/03/21 01:14:45;;;;;;;15.20;9.23;;;;;;;2.79;55.40;103747.25;4758661;30;20243;-78
2022/03/21 01:17:10;;;;;;;16.30;10.43;;;;;;;3.11;55.06;103792.66;4771835;30;20039;-78
2022/03/21 01:19:35;;;;;;;14.07;9.35;;;;;;;3.21;55.67;103819.66;4771947;30;20379;-78
2022/03/21 01:22:01;;;;;;;16.70;9.48;;;;;;;3.21;55.10;103820.53;4741134;30;20054;-78
2022/03/21 01:24:26;;;;;;;13.63;9.82;;;;;;;3.10;56.03;103817.53;4771983;30;20110;-78
2022/03/21 01:26:52;;;;;;;15.55;9.95;;;;;;;2.96;56.17;103812.06;4757726;30;20043;-78
2022/03/21 01:29:17;;;;;;;15.23;9.77;;;;;;;2.74;56.90;103791.81;4771588;30;20127;-78
2022/03/21 01:31:43;;;;;;;14.73;9.68;;;;;;;2.78;57.78;103803.16;4771434;30;20044;-78
2022/03/21 01:34:08;;;;;;;17.67;10.18;;;;;;;2.72;57.85;103801.69;4755222;30;20581;-78
2022/03/21 01:36:34;;;;;;;16.05;10.05;;;;;;;2.61;58.17;103790.69;4755215;30;20105;-78
2022/03/21 01:38:59;;;;;;;17.95;9.93;;;;;;;2.56;59.03;103800.69;4756968;30;20043;-78
2022/03/21 01:41:24;;;;;;;14.07;10.25;;;;;;;2.46;58.73;103780.78;4748362;30;20035;-77
2022/03/21 01:44:02;;;;;;;16.38;10.57;;;;;;;2.46;59.15;103796.75;4772994;30;20454;-78
2022/03/21 01:46:28;;;;;;;16.15;10.13;;;;;;;2.46;59.52;103788.78;4783675;30;20502;-79
2022/03/21 01:48:54;;;;;;;15.23;10.20;;;;;;;2.35;59.58;103775.97;4771898;30;20035;-78
2022/03/21 01:51:20;;;;;;;17.58;10.25;;;;;;;2.25;60.14;103777.34;4741889;30;20131;-78
2022/03/21 01:56:31;;;;;;;15.57;9.88;;;;;;;2.06;61.18;103759.63;4793820;30;20060;-78
2022/03/21 01:58:57;;;;;;;17.80;10.18;;;;;;;2.15;61.48;103784.88;4758682;30;20043;-78
2022/03/21 02:01:23;;;;;;;15.05;9.95;;;;;;;2.00;62.00;103772.31;4772136;30;20118;-78
2022/03/21 02:03:48;;;;;;;14.82;10.35;;;;;;;1.89;62.32;103754.22;4755883;30;20378;-78
2022/03/21 02:06:14;;;;;;;17.40;9.98;;;;;;;1.94;62.88;103767.28;4785382;30;20042;-77
2022/03/21 02:08:40;;;;;;;16.02;9.80;;;;;;;1.52;62.98;103712.53;4773208;30;20088;-78
2022/03/21 02:11:05;;;;;;;14.98;9.80;;;;;;;1.82;63.28;103766.03;4760882;30;20058;-78
2022/03/21 02:13:32;;;;;;;15.95;10.27;;;;;;;1.71;63.26;103741.75;4755727;30;20028;-78
2022/03/21 02:15:59;;;;;;;15.80;9.65;;;;;;;1.81;63.64;103759.84;4756256;30;20039;-78
2022/03/21 02:18:26;;;;;;;21.23;10.13;;;;;;;1.59;63.52;103717.50;4755332;30;20115;-77
2022/03/21 02:20:54;;;;;;;16.80;9.95;;;;;;;1.88;63.53;103771.91;4772018;30;20036;-78
2022/03/21 02:23:30;;;;;;;18.02;10.20;;;;;;;1.91;63.52;103772.72;4770725;30;20107;-78
2022/03/21 02:25:57;;;;;;;16.10;10.25;;;;;;;1.85;63.75;103761.47;4771269;30;20363;-77
2022/03/21 02:28:26;;;;;;;20.95;10.63;;;;;;;1.71;64.27;103753.25;4761378;30;20074;-78
2022/03/21 02:30:53;;;;;;;18.50;10.02;;;;;;;1.60;64.72;103756.38;4769737;30;20027;-78
2022/03/21 02:33:19;;;;;;;16.95;10.50;;;;;;;1.59;65.16;103753.78;4785360;30;20039;-78
2022/03/21 02:35:50;;;;;;;17.70;10.52;;;;;;;1.50;65.48;103736.50;4771760;30;20043;-77
2022/03/21 02:38:17;;;;;;;15.05;9.95;;;;;;;1.57;65.51;103745.91;4774236;30;20043;-78
2022/03/21 02:40:43;;;;;;;17.75;10.73;;;;;;;1.59;65.91;103745.81;4755399;30;20032;-78
2022/03/21 02:43:08;;;;;;;19.35;9.95;;;;;;;1.60;65.59;103743.09;4758238;30;20047;-78
2022/03/21 02:45:33;;;;;;;16.27;10.60;;;;;;;1.52;65.50;103724.00;4780207;30;20028;-77
2022/03/21 02:47:59;;;;;;;15.77;10.18;;;;;;;1.65;65.48;103742.88;4787017;30;20042;-77
2022/03/21 02:50:52;;;;;;;17.40;10.32;;;;;;;1.59;65.81;103744.06;4763754;30;20459;-78
2022/03/21 02:53:20;;;;;;;17.73;10.50;;;;;;;1.60;65.76;103731.63;4775113;30;20102;-78
2022/03/21 02:55:45;;;;;;;16.27;10.63;;;;;;;1.67;65.58;103740.19;4773577;30;20035;-78
2022/03/21 02:58:11;;;;;;;18.13;10.27;;;;;;;1.63;65.82;103740.31;4774185;30;20166;-77
2022/03/21 03:00:36;;;;;;;17.35;10.02;;;;;;;1.60;65.98;103734.28;4773850;30;20039;-78
2022/03/21 03:03:01;;;;;;;17.90;10.40;;;;;;;1.64;65.98;103738.53;4774575;30;20034;-77
2022/03/21 03:05:27;;;;;;;15.30;10.23;;;;;;;1.66;65.83;103728.72;4757768;30;20033;-78
2022/03/21 03:07:52;;;;;;;16.05;10.30;;;;;;;1.64;65.60;103711.97;4759012;30;20032;-78
2022/03/21 03:10:18;;;;;;;17.23;9.73;;;;;;;1.62;65.93;103712.06;4757905;30;20129;-78
2022/03/21 03:12:43;;;;;;;15.00;10.25;;;;;;;1.70;65.55;103724.97;4758655;30;20100;-78
2022/03/21 03:15:09;;;;;;;17.17;10.35;;;;;;;1.61;65.72;103712.13;4759214;30;20062;-78
2022/03/21 03:17:34;;;;;;;19.45;10.52;;;;;;;1.64;65.41;103704.03;4774567;30;20063;-77
2022/03/21 03:20:01;;;;;;;15.95;9.85;;;;;;;1.37;65.89;103658.38;4775204;30;20042;-78
2022/03/21 03:22:28;;;;;;;19.98;10.38;;;;;;;1.72;65.78;103722.25;4790975;30;20066;-78
2022/03/21 03:24:53;;;;;;;16.13;9.95;;;;;;;1.66;65.54;103710.13;4774446;30;20031;-78
2022/03/21 03:27:19;;;;;;;17.92;10.55;;;;;;;1.80;65.39;103720.13;4774651;30;20462;-78
2022/03/21 03:29:45;;;;;;;16.05;10.23;;;;;;;1.82;65.35;103719.13;4775768;30;20027;-78
2022/03/21 03:32:10;;;;;;;17.58;10.77;;;;;;;1.75;65.84;103715.00;4767870;30;20067;-78
2022/03/21 03:34:36;;;;;;;16.73;10.52;;;;;;;1.69;65.99;103704.69;4772977;30;20032;-78
2022/03/21 03:37:03;;;;;;;14.13;9.77;;;;;;;1.68;66.01;103702.09;4772799;30;20059;-78
2022/03/21 03:39:29;;;;;;;15.82;10.00;;;;;;;1.67;66.18;103709.19;4759244;30;20063;-78
2022/03/21 03:41:55;;;;;;;17.20;10.27;;;;;;;1.56;66.72;103692.91;4762722;30;20374;-78
2022/03/21 03:44:22;;;;;;;18.15;10.35;;;;;;;1.65;66.33;103700.41;4773203;30;20028;-78
2022/03/21 03:46:48;;;;;;;16.48;10.63;;;;;;;1.54;66.20;103692.09;4763952;30;20031;-78
2022/03/21 03:49:13;;;;;;;16.00;10.40;;;;;;;1.60;66.79;103700.66;4774839;30;20041;-78
2022/03/21 03:51:39;;;;;;;18.98;11.07;;;;;;;1.47;66.60;103688.00;4787069;30;20070;-78
2022/03/21 03:54:04;;;;;;;14.93;10.15;;;;;;;1.44;66.98;103690.78;4772675;30;20524;-78
2022/03/21 03:56:30;;;;;;;15.00;10.25;;;;;;;1.59;66.62;103706.91;4757162;30;20032;-78
2022/03/21 03:58:55;;;;;;;18.50;10.63;;;;;;;1.54;66.81;103708.88;4741376;30;20092;-77
2022/03/21 04:01:20;;;;;;;16.20;10.95;;;;;;;1.48;66.97;103713.59;4773220;30;20059;-77
2022/03/21 04:03:46;;;;;;;18.23;11.30;;;;;;;1.43;67.52;103710.31;4773283;30;20039;-78
2022/03/21 04:06:30;;;;;;;18.35;11.40;;;;;;;1.18;67.87;103679.53;4772504;30;20395;-78
2022/03/21 04:08:58;;;;;;;15.32;10.90;;;;;;;1.11;68.14;103673.63;4757437;30;20046;-78
2022/03/21 04:11:24;;;;;;;15.98;10.70;;;;;;;1.15;68.96;103695.56;4775271;30;20028;-78
2022/03/21 04:13:49;;;;;;;15.23;10.90;;;;;;;1.22;69.11;103707.63;4772965;30;20088;-78
2022/03/21 04:16:15;;;;;;;17.83;11.07;;;;;;;1.20;69.11;103709.50;4757948;30;20071;-78
2022/03/21 04:18:40;;;;;;;21.70;11.13;;;;;;;1.20;69.33;103716.63;4743342;30;20036;-78
2022/03/21 04:21:06;;;;;;;17.42;10.85;;;;;;;1.21;69.53;103700.63;4756211;30;20036;-77
2022/03/21 04:23:31;;;;;;;18.25;10.63;;;;;;;1.27;69.41;103710.97;4757761;30;20040;-78
2022/03/21 04:25:57;;;;;;;18.65;11.52;;;;;;;1.11;69.98;103694.84;4772531;30;20058;-77
2022/03/21 04:28:22;;;;;;;16.63;11.25;;;;;;;1.22;69.77;103712.09;4772856;30;20443;-78
2022/03/21 04:30:48;;;;;;;16.38;10.68;;;;;;;1.20;69.84;103713.97;4757533;30;20122;-77
2022/03/21 04:33:15;;;;;;;18.95;10.82;;;;;;;1.06;70.20;103703.91;4771871;30;20131;-78
2022/03/21 04:35:43;;;;;;;17.35;10.77;;;;;;;1.13;70.57;103714.22;4774302;30;20036;-77
2022/03/21 04:38:13;;;;;;;14.77;10.73;;;;;;;1.13;71.04;103718.66;4742646;30;20051;-78
2022/03/21 04:40:49;;;;;;;16.70;10.90;;;;;;;0.96;71.24;103689.34;4757277;30;20155;-78
2022/03/21 04:43:16;;;;;;;19.63;11.55;;;;;;;1.11;71.47;103720.50;4789430;30;20031;-77
2022/03/21 04:45:43;;;;;;;16.58;10.85;;;;;;;1.05;71.33;103710.16;4773757;30;20367;-78
2022/03/21 04:48:09;;;;;;;21.05;12.57;;;;;;;0.96;71.70;103694.63;4774625;30;20031;-77
2022/03/21 04:50:35;;;;;;;17.65;11.32;;;;;;;1.03;72.07;103706.72;4756805;30;20035;-77
2022/03/21 04:53:01;;;;;;;19.50;10.90;;;;;;;1.02;72.08;103705.00;4777161;30;20036;-78
2022/03/21 04:55:28;;;;;;;18.98;11.70;;;;;;;0.97;72.23;103707.84;4773363;30;20811;-78
2022/03/21 04:57:53;;;;;;;17.67;11.10;;;;;;;0.99;72.91;103705.97;4775532;30;20024;-77
2022/03/21 05:00:19;;;;;;;23.02;11.60;;;;;;;1.04;72.48;103716.41;4773170;30;20414;-78
2022/03/21 05:02:44;;;;;;;20.33;11.27;;;;;;;0.92;74.16;103700.06;4771662;30;20027;-78
2022/03/21 05:05:10;;;;;;;21.75;11.52;;;;;;;1.00;74.13;103699.75;4757456;30;20068;-77
2022/03/21 05:07:46;;;;;;;15.70;10.50;;;;;;;1.13;73.04;103710.72;4771985;30;20045;-78
2022/03/21 05:10:14;;;;;;;17.42;11.00;;;;;;;1.18;72.83;103706.06;4769647;30;20080;-78
2022/03/21 05:12:39;;;;;;;18.02;11.27;;;;;;;1.10;73.56;103708.19;4757474;30;20032;-78
2022/03/21 05:15:07;;;;;;;22.10;11.13;;;;;;;1.04;73.45;103690.75;4771138;30;20024;-77
2022/03/21 05:17:33;;;;;;;20.38;12.23;;;;;;;1.22;72.71;103704.13;4755304;30;20048;-78
2022/03/21 05:19:59;;;;;;;19.75;11.98;;;;;;;1.05;73.63;103683.66;4771283;30;20036;-77
2022/03/21 05:22:26;;;;;;;18.75;10.95;;;;;;;1.10;74.01;103697.59;4756089;30;20031;-78
2022/03/21 05:35:57;;;;;;;15.98;10.93;;;;;;;1.21;73.30;103689.16;4770958;30;20226;-77
2022/03/21 05:38:25;;;;;;;23.80;11.75;;;;;;;1.39;73.00;103704.25;4742949;30;20032;-78
2022/03/21 05:40:51;;;;;;;20.88;11.98;;;;;;;1.41;73.14;103713.00;4770838;30;20035;-77
2022/03/21 05:43:17;;;;;;;21.33;11.73;;;;;;;1.47;72.81;103715.38;4756071;30;20105;-77
2022/03/21 05:45:43;;;;;;;19.33;11.27;;;;;;;1.47;72.65;103707.44;4771645;30;20035;-77
2022/03/21 05:50:54;;;;;;;17.73;11.15;;;;;;;1.51;72.56;103705.50;4771472;30;20082;-77
2022/03/21 05:53:19;;;;;;;21.50;11.60;;;;;;;1.58;72.89;103714.91;4771242;30;20058;-77
2022/03/21 05:55:45;;;;;;;20.40;10.95;;;;;;;1.67;72.60;103718.94;4754908;30;20111;-78
2022/03/21 05:58:11;;;;;;;22.52;11.32;;;;;;;1.71;72.44;103715.22;4771979;30;20485;-78
2022/03/21 06:00:37;;;;;;;23.45;11.93;;;;;;;1.65;72.14;103705.72;4772454;30;20044;-77
2022/03/21 06:03:04;;;;;;;20.75;11.20;;;;;;;1.71;72.37;103704.59;4777118;30;20035;-77
2022/03/21 06:05:31;;;;;;;20.20;10.48;;;;;;;1.86;71.98;103712.72;4790884;30;20043;-78
2022/03/21 06:07:57;;;;;;;21.08;11.73;;;;;;;1.94;72.18;103716.81;4772600;30;20036;-78
2022/03/21 06:10:22;;;;;;;19.73;11.25;;;;;;;1.99;71.70;103710.38;4772160;30;20039;-78
2022/03/21 06:12:49;;;;;;;24.42;12.15;;;;;;;2.02;71.70;103696.06;4757645;30;20031;-78
2022/03/21 06:15:15;;;;;;;18.98;11.50;;;;;;;2.21;71.29;103718.16;4757748;30;20464;-78
2022/03/21 06:17:42;;;;;;;23.90;12.13;;;;;;;2.24;71.33;103706.53;4770850;30;20035;-78
2022/03/21 06:20:12;;;;;;;23.42;12.02;;;;;;;2.23;70.95;103703.03;4772157;30;20038;-77
2022/03/21 06:22:38;;;;;;;24.33;12.00;;;;;;;2.46;70.61;103720.53;4778195;30;20184;-78
2022/03/21 06:25:05;;;;;;;22.60;11.40;;;;;;;2.55;70.73;103721.84;4746273;30;20032;-78
2022/03/21 06:27:33;;;;;;;17.90;11.27;;;;;;;2.50;70.79;103706.16;4776454;30;20672;-79
2022/03/21 06:29:58;;;;;;;22.10;10.82;;;;;;;2.54;70.98;103706.84;4762339;30;20035;-78
2022/03/21 06:32:24;;;;;;;16.30;11.10;;;;;;;2.30;70.68;103675.22;4762752;30;20378;-78
2022/03/21 06:34:51;;;;;;;20.55;11.73;;;;;;;2.59;70.22;103700.38;4781498;30;20071;-78
2022/03/21 06:37:16;;;;;;;18.90;11.45;;;;;;;2.90;69.44;103714.78;4768625;30;20043;-79
2022/03/21 06:39:42;;;;;;;23.27;11.45;;;;;;;2.90;69.77;103706.81;4784999;30;20051;-79
2022/03/21 06:42:08;;;;;;;21.83;11.27;;;;;;;2.85;69.35;103687.59;4732010;30;20051;-79
2022/03/21 06:44:34;;;;;;;19.40;10.90;;;;;;;3.12;69.14;103717.22;4794882;29;20126;-79
2022/03/21 06:46:59;;;;;;;22.15;11.15;;;;;;;3.32;68.07;103710.88;4741231;30;20114;-78
2022/03/21 06:49:29;;;;;;;18.98;11.20;;;;;;;3.41;68.02;103722.81;4777139;30;20441;-79
2022/03/21 06:51:56;;;;;;;23.38;11.35;;;;;;;3.51;67.89;103724.09;4761905;30;20052;-78
2022/03/21 06:54:22;;;;;;;20.80;11.02;;;;;;;3.12;67.41;103656.03;4777587;30;20024;-78
2022/03/21 06:56:47;;;;;;;32.28;11.45;;;;;;;3.26;66.78;103673.94;4778594;30;20043;-78
2022/03/21 06:59:13;;;;;;;20.98;11.05;;;;;;;3.71;66.71;103712.38;4788145;30;20039;-79
2022/03/21 07:01:38;;;;;;;22.30;11.73;;;;;;;3.85;66.45;103715.13;4760621;30;20051;-79
2022/03/21 07:04:05;;;;;;;22.73;11.20;;;;;;;3.99;65.88;103714.38;4751762;30;20053;-78
2022/03/21 07:06:30;;;;;;;22.13;10.60;;;;;;;3.96;64.59;103707.41;4766008;30;20387;-80
2022/03/21 07:08:56;;;;;;;21.83;10.77;;;;;;;4.16;64.42;103708.97;4745353;30;20036;-79
2022/03/21 07:11:22;;;;;;;17.85;10.52;;;;;;;4.25;64.01;103723.59;4759916;30;20039;-79
2022/03/21 07:13:48;;;;;;;21.63;11.25;;;;;;;4.28;63.95;103719.91;4760255;30;20044;-78
2022/03/21 07:16:17;;;;;;;24.85;10.93;;;;;;;4.37;63.21;103730.03;4775389;30;20044;-79
2022/03/21 07:18:43;;;;;;;25.42;10.65;;;;;;;4.38;63.02;103713.97;4767086;30;20108;-79
2022/03/21 07:21:08;;;;;;;19.60;10.82;;;;;;;4.61;62.20;103720.66;4764547;30;20486;-78
2022/03/21 07:23:34;;;;;;;18.85;9.68;;;;;;;4.63;61.86;103723.22;4779054;30;20047;-79
2022/03/21 07:26:02;;;;;;;23.48;10.77;;;;;;;4.65;61.62;103703.50;4776389;30;20040;-78
2022/03/21 07:28:27;;;;;;;19.38;10.23;;;;;;;5.01;61.40;103712.97;4776797;30;20540;-79
2022/03/21 07:30:53;;;;;;;18.13;10.90;;;;;;;4.92;60.43;103689.50;4791076;30;20039;-79
2022/03/21 07:33:19;;;;;;;24.08;11.70;;;;;;;5.17;59.82;103712.94;4774252;30;20100;-78
2022/03/21 07:35:44;;;;;;;18.38;10.85;;;;;;;5.29;58.51;103712.16;4780949;30;20047;-78
2022/03/21 07:38:10;;;;;;;22.42;10.43;;;;;;;5.44;58.03;103705.03;4773486;30;20123;-78
2022/03/21 07:40:35;;;;;;;21.45;10.43;;;;;;;5.67;57.99;103708.09;4756966;30;20144;-80
2022/03/21 07:43:01;;;;;;;20.45;11.07;;;;;;;5.65;57.19;103685.00;4760326;30;20491;-81
2022/03/21 07:48:11;;;;;;;21.10;10.73;;;;;;;5.91;56.20;103719.06;4783329;30;20140;-82
2022/03/21 07:50:37;;;;;;;21.70;10.85;;;;;;;5.93;55.28;103712.72;4784304;30;20042;-82
2022/03/21 07:53:04;;;;;;;20.02;10.70;;;;;;;6.16;55.62;103718.38;4769392;30;20063;-81
2022/03/21 07:55:33;;;;;;;21.58;11.57;;;;;;;6.27;54.96;103707.84;4794644;30;20024;-81
2022/03/21 07:57:59;;;;;;;22.02;10.48;;;;;;;6.25;55.07;103699.91;4795133;30;20119;-83
2022/03/21 08:00:26;;;;;;;19.55;10.32;;;;;;;6.18;54.45;103666.53;4802932;30;20031;-82
2022/03/21 08:02:53;;;;;;;20.33;10.13;;;;;;;6.52;54.66;103712.44;4792032;30;20040;-82
2022/03/21 08:05:19;;;;;;;23.85;9.93;;;;;;;6.57;54.59;103718.38;4799826;30;20053;-82
2022/03/21 08:07:45;;;;;;;19.83;10.73;;;;;;;6.59;53.89;103706.63;4782982;30;20023;-82
2022/03/21 08:10:11;;;;;;;23.55;10.50;;;;;;;6.48;53.28;103694.88;4794913;30;20043;-82
2022/03/21 08:12:42;;;;;;;15.20;9.65;;;;;;;6.43;53.16;103689.84;4760526;30;20036;-82
2022/03/21 08:15:11;;;;;;;20.60;10.77;;;;;;;6.71;53.05;103694.22;4781555;30;20065;-81
2022/03/21 08:18:02;;;;;;;18.40;10.60;;;;;;;6.96;52.96;103703.28;4797313;30;20040;-82
2022/03/21 08:20:33;;;;;;;22.38;10.82;;;;;;;7.12;52.97;103703.94;4777747;30;20028;-82
2022/03/21 08:23:05;;;;;;;21.30;10.15;;;;;;;6.93;52.43;103680.25;4771127;30;20029;-81
2022/03/21 08:25:31;;;;;;;25.83;10.60;;;;;;;7.15;52.29;103703.75;4790273;30;20043;-82
2022/03/21 08:27:58;;;;;;;22.15;10.35;;;;;;;7.18;51.82;103686.59;4782696;30;20474;-82
2022/03/21 08:30:24;;;;;;;20.55;10.82;;;;;;;7.26;51.93;103678.91;4783126;30;20044;-79
2022/03/21 08:32:49;;;;;;;24.08;11.00;;;;;;;7.24;50.94;103680.81;4759821;30;20027;-81
2022/03/21 08:35:17;;;;;;;19.17;10.52;;;;;;;7.33;50.84;103677.50;4773950;30;20074;-80
2022/03/21 08:37:43;;;;;;;22.50;10.35;;;;;;;7.43;50.48;103686.59;4759199;30;20091;-80
2022/03/21 08:40:10;;;;;;;16.80;10.45;;;;;;;7.53;50.34;103686.81;4772042;30;20487;-80
2022/03/21 08:42:36;;;;;;;22.33;10.07;;;;;;;7.46;50.23;103673.00;4771131;30;20040;-79
2022/03/21 08:45:03;;;;;;;21.33;10.00;;;;;;;7.70;50.07;103689.16;4772628;30;20059;-80
2022/03/21 08:47:28;;;;;;;18.85;10.55;;;;;;;7.87;50.09;103692.44;4777115;29;20046;-80
2022/03/21 08:49:54;;;;;;;20.83;10.73;;;;;;;7.67;48.90;103680.47;4778119;30;20032;-79
2022/03/21 08:52:19;;;;;;;17.85;10.10;;;;;;;7.85;49.66;103676.47;4771517;30;20043;-78
2022/03/21 08:57:20;;;;;;;26.58;10.45;;;;;;;8.13;49.08;103690.56;5165787;24;19925;-82
2022/03/21 08:59:47;;;;;;;22.23;10.98;;;;;;;7.12;48.84;103537.94;4907492;24;20111;-81
2022/03/21 09:02:15;;;;;;;21.52;10.75;;;;;;;8.11;48.76;103689.78;4795403;29;20443;-78
2022/03/21 09:04:41;;;;;;;24.13;10.60;;;;;;;8.08;48.64;103666.75;4776638;30;20032;-80
2022/03/21 09:07:09;;;;;;;21.73;10.38;;;;;;;8.25;48.36;103673.56;4781107;30;20037;-78
2022/03/21 09:12:08;;;;;;;26.27;10.95;;;;;;;8.55;47.38;103677.66;4890487;24;20059;-78
2022/03/21 09:14:37;;;;;;;20.67;10.50;;;;;;;8.58;47.15;103677.44;4796037;29;20359;-77
2022/03/21 09:17:03;;;;;;;24.02;11.20;;;;;;;8.67;46.81;103687.44;4782590;29;20054;-77
2022/03/21 09:19:30;;;;;;;22.52;10.93;;;;;;;8.79;47.15;103686.53;4798557;29;20070;-77
2022/03/21 09:21:59;;;;;;;19.65;10.25;;;;;;;8.71;46.04;103688.94;4779842;29;20035;-77
2022/03/21 09:24:25;;;;;;;22.52;10.82;;;;;;;8.78;45.58;103686.66;4781269;29;20026;-77
2022/03/21 09:26:51;;;;;;;22.73;10.75;;;;;;;9.02;45.76;103683.91;4795385;29;20441;-77
2022/03/21 09:29:17;;;;;;;19.70;10.77;;;;;;;9.06;46.00;103682.69;4778547;29;20035;-76
2022/03/21 09:31:42;;;;;;;17.30;10.80;;;;;;;8.99;45.76;103652.75;4795039;29;20039;-77
2022/03/21 09:34:09;;;;;;;22.35;10.45;;;;;;;9.16;45.64;103671.09;4779345;29;20027;-77
2022/03/21 09:36:35;;;;;;;18.95;10.85;;;;;;;9.36;45.70;103679.44;4795811;29;20487;-77
2022/03/21 09:39:00;;;;;;;17.13;10.15;;;;;;;9.43;45.43;103667.22;4797596;29;20050;-77
2022/03/21 09:41:27;;;;;;;17.70;10.80;;;;;;;9.56;45.79;103656.34;4773028;29;20039;-77
2022/03/21 09:43:55;;;;;;;19.52;10.68;;;;;;;9.68;45.06;103650.00;4806694;29;20027;-77
2022/03/21 09:46:21;;;;;;;23.38;10.40;;;;;;;9.92;45.01;103679.44;4803498;29;20031;-77
2022/03/21 09:48:51;;;;;;;17.02;10.18;;;;;;;9.93;44.97;103675.75;4786508;29;20046;-76
2022/03/21 09:51:35;;;;;;;15.55;10.25;;;;;;;9.82;43.93;103678.47;4800763;29;20031;-77
2022/03/21 09:54:02;;;;;;;16.50;9.95;;;;;;;9.80;45.13;103686.69;4806043;29;20517;-77
2022/03/21 09:56:28;;;;;;;18.73;10.95;;;;;;;9.63;45.80;103673.69;4788180;29;20035;-77
2022/03/21 09:59:03;;;;;;;16.67;10.90;;;;;;;9.68;46.19;103676.91;4790908;29;20118;-76
2022/03/21 10:01:31;;;;;;;15.82;10.65;;;;;;;9.59;45.77;103680.31;4788248;29;20030;-76
2022/03/21 10:03:58;;;;;;;15.30;10.10;;;;;;;9.67;45.51;103685.06;4804643;29;20035;-77
2022/03/21 10:06:34;;;;;;;14.93;10.70;;;;;;;9.85;45.26;103675.53;4774073;29;20042;-77
2022/03/21 10:09:17;;;;;;;18.95;10.52;;;;;;;9.92;45.91;103683.97;4771242;30;20035;-77
2022/03/21 10:11:53;;;;;;;16.98;10.82;;;;;;;9.92;45.91;103684.81;4777246;29;20067;-78
2022/03/21 10:14:33;;;;;;;15.68;10.05;;;;;;;9.95;44.95;103683.72;4792078;29;20056;-77
2022/03/21 10:17:03;;;;;;;15.45;10.10;;;;;;;9.99;45.89;103677.94;4799809;29;20027;-77
2022/03/21 10:19:43;;;;;;;18.58;10.55;;;;;;;10.13;45.62;103671.44;4800966;29;20038;-77
2022/03/21 10:22:12;;;;;;;17.35;10.57;;;;;;;10.19;45.45;103659.31;4802810;29;20092;-77
2022/03/21 10:24:45;;;;;;;15.25;9.30;;;;;;;10.42;45.05;103657.44;4798742;29;20107;-77
2022/03/21 10:27:36;;;;;;;14.20;9.00;;;;;;;10.47;44.86;103653.41;4785626;29;20617;-77
2022/03/21 10:30:08;;;;;;;16.25;9.65;;;;;;;10.47;43.93;103631.00;4783905;30;20031;-77
2022/03/21 10:32:35;;;;;;;13.02;9.00;;;;;;;10.76;43.30;103655.44;4792604;29;20046;-76
2022/03/21 10:35:23;;;;;;;12.18;8.85;;;;;;;10.91;42.11;103647.91;4776865;30;20409;-77
2022/03/21 10:37:53;;;;;;;14.10;8.57;;;;;;;11.02;41.31;103628.97;4798456;29;20038;-77
2022/03/21 10:40:27;;;;;;;14.07;8.45;;;;;;;11.32;40.95;103649.69;4787040;29;20117;-77
2022/03/21 10:43:07;;;;;;;14.70;8.82;;;;;;;11.39;39.43;103647.31;4797071;29;20041;-78
2022/03/21 10:45:40;;;;;;;13.68;8.18;;;;;;;11.45;39.38;103642.22;4801230;29;20023;-77
2022/03/21 10:48:09;;;;;;;16.63;8.05;;;;;;;11.50;38.85;103649.94;4794425;29;20069;-76
2022/03/21 10:50:39;;;;;;;12.10;8.05;;;;;;;11.42;37.43;103644.34;4779920;29;20057;-77
2022/03/21 10:53:17;;;;;;;11.63;8.05;;;;;;;11.52;37.96;103645.25;4797813;29;20103;-77
2022/03/21 10:56:05;;;;;;;11.45;8.23;;;;;;;11.39;37.68;103605.06;4780977;29;20034;-77
2022/03/21 10:58:45;;;;;;;12.40;8.10;;;;;;;11.58;38.22;103615.03;4779974;29;20108;-77
2022/03/21 11:01:25;;;;;;;17.48;7.97;;;;;;;11.68;37.27;103644.75;4779573;30;20077;-77
2022/03/21 11:03:56;;;;;;;13.32;7.40;;;;;;;11.64;36.90;103643.31;4800147;29;20035;-78
2022/03/21 11:06:22;;;;;;;12.32;7.70;;;;;;;11.65;36.69;103642.31;4785063;29;20118;-76
2022/03/21 11:08:51;;;;;;;13.38;8.38;;;;;;;11.60;36.51;103641.88;4781647;29;20146;-77
2022/03/21 11:11:17;;;;;;;12.30;8.10;;;;;;;11.59;36.99;103650.94;4786073;30;20087;-77
2022/03/21 11:13:42;;;;;;;13.90;8.10;;;;;;;11.52;37.34;103635.34;4784876;29;20098;-77
2022/03/21 11:16:09;;;;;;;13.73;7.65;;;;;;;11.40;36.59;103609.44;4784314;29;20049;-77
2022/03/21 11:18:35;;;;;;;13.63;8.10;;;;;;;11.59;37.11;103637.47;4771847;29;20362;-77
2022/03/21 11:21:00;;;;;;;12.40;7.43;;;;;;;11.70;36.65;103640.91;4784711;29;20026;-77
2022/03/21 11:23:26;;;;;;;13.65;7.53;;;;;;;11.59;36.77;103634.75;4783245;29;20034;-78
2022/03/21 11:25:54;;;;;;;23.75;7.78;;;;;;;11.52;36.52;103634.47;4800857;29;20076;-78
2022/03/21 11:28:37;;;;;;;11.48;7.10;;;;;;;11.32;35.42;103590.38;4784912;29;20423;-77
2022/03/21 11:31:15;;;;;;;10.52;7.22;;;;;;;11.64;35.31;103624.44;4790525;29;20377;-78
2022/03/21 11:33:45;;;;;;;13.98;7.18;;;;;;;11.76;34.78;103632.28;4790632;29;20390;-78
2022/03/21 11:36:12;;;;;;;9.60;6.35;;;;;;;11.70;34.73;103611.25;4786621;29;20034;-77
2022/03/21 11:38:45;;;;;;;13.60;6.82;;;;;;;11.83;34.73;103613.69;4776104;30;20031;-77
2022/03/21 11:41:31;;;;;;;13.38;7.05;;;;;;;11.94;34.79;103601.97;4773825;30;20043;-77
2022/03/21 11:44:16;;;;;;;9.50;6.35;;;;;;;12.02;34.45;103615.63;4795599;29;20413;-77
2022/03/21 11:46:47;;;;;;;10.57;6.63;;;;;;;12.07;34.07;103599.00;4792315;29;20043;-77